createdAt,value
2023-11-30T00:00:31.024Z,31.25
2023-11-30T00:01:33.492Z,36.00
2023-11-30T00:02:35.130Z,40.75
2023-11-30T00:03:38.955Z,37.25
2023-11-30T00:04:40.438Z,36.00
2023-11-30T00:05:42.857Z,37.50
2023-11-30T00:06:44.296Z,27.75
2023-11-30T00:07:46.878Z,33.50
2023-11-30T00:08:48.374Z,31.00
2023-11-30T00:09:49.819Z,27.75
2023-11-30T00:10:52.246Z,35.50
2023-11-30T00:11:53.717Z,35.75
2023-11-30T00:12:56.277Z,32.00
2023-11-30T00:13:57.800Z,38.00
2023-11-30T00:14:59.289Z,30.00
2023-11-30T00:16:01.754Z,33.75
2023-11-30T00:17:03.363Z,39.50
2023-11-30T00:18:05.409Z,35.00
2023-11-30T00:19:09.219Z,28.75
2023-11-30T00:20:12.113Z,28.75
2023-11-30T00:21:14.667Z,30.75
2023-11-30T00:22:16.172Z,33.50
2023-11-30T00:23:18.696Z,33.75
2023-11-30T00:24:20.183Z,30.00
2023-11-30T00:25:22.633Z,37.50
2023-11-30T00:26:24.110Z,27.25
2023-11-30T00:27:26.617Z,33.25
2023-11-30T00:28:28.231Z,32.50
2023-11-30T00:29:30.640Z,29.75
2023-11-30T00:30:32.237Z,46.00
2023-11-30T00:31:34.710Z,36.75
2023-11-30T00:32:38.046Z,44.75
2023-11-30T00:33:40.602Z,34.25
2023-11-30T00:34:43.404Z,39.75
2023-11-30T00:35:45.875Z,41.00
2023-11-30T00:36:47.313Z,45.00
2023-11-30T00:37:49.718Z,38.75
2023-11-30T00:38:51.491Z,36.00
2023-11-30T00:39:54.206Z,29.25
2023-11-30T00:40:55.685Z,35.25
2023-11-30T00:41:58.212Z,32.00
2023-11-30T00:42:59.787Z,33.75
2023-11-30T00:44:02.344Z,39.50
2023-11-30T00:45:04.194Z,33.75
2023-11-30T00:46:09.867Z,34.00
2023-11-30T00:47:11.667Z,36.50
2023-11-30T00:48:14.189Z,31.50
2023-11-30T00:49:16.151Z,29.00
2023-11-30T00:50:19.922Z,36.50
2023-11-30T00:51:21.432Z,32.25
2023-11-30T00:52:23.869Z,29.50
2023-11-30T00:53:25.329Z,32.00
2023-11-30T00:54:27.820Z,33.75
2023-11-30T00:55:29.349Z,34.25
2023-11-30T00:56:31.764Z,32.25
2023-11-30T00:57:33.241Z,30.75
2023-11-30T00:58:35.726Z,37.25
2023-11-30T00:59:38.323Z,43.50
2023-11-30T01:00:40.741Z,34.25
2023-11-30T01:01:42.321Z,51.25
2023-11-30T01:02:44.820Z,51.00
2023-11-30T01:03:46.377Z,47.00
2023-11-30T01:04:49.052Z,45.50
2023-11-30T01:05:51.871Z,43.75
2023-11-30T01:06:54.284Z,39.50
2023-11-30T01:07:55.770Z,39.50
2023-11-30T01:08:58.207Z,40.75
2023-11-30T01:09:59.785Z,44.50
2023-11-30T01:11:03.661Z,38.50
2023-11-30T01:12:05.665Z,36.75
2023-11-30T01:13:08.072Z,36.75
2023-11-30T01:14:09.519Z,37.00
2023-11-30T01:15:12.258Z,34.00
2023-11-30T01:16:13.719Z,39.50
2023-11-30T01:17:16.213Z,35.25
2023-11-30T01:18:17.874Z,30.25
2023-11-30T01:19:20.359Z,35.75
2023-11-30T01:20:22.279Z,34.00
2023-11-30T01:21:26.048Z,34.50
2023-11-30T01:22:27.502Z,29.00
2023-11-30T01:23:29.985Z,37.75
2023-11-30T01:24:31.618Z,31.50
2023-11-30T01:25:34.232Z,30.25
2023-11-30T01:26:35.646Z,32.00
2023-11-30T01:27:38.084Z,32.25
2023-11-30T01:28:40.036Z,27.00
2023-11-30T01:29:42.525Z,31.75
2023-11-30T01:30:44.246Z,34.50
2023-11-30T01:31:46.662Z,27.25
2023-11-30T01:32:48.275Z,32.25
2023-11-30T01:33:51.038Z,36.25
2023-11-30T01:34:52.490Z,44.50
2023-11-30T01:35:55.233Z,34.50
2023-11-30T01:36:58.108Z,32.75
2023-11-30T01:38:00.522Z,40.00
2023-11-30T01:39:01.988Z,48.25
2023-11-30T01:40:04.645Z,38.75
2023-11-30T01:41:06.864Z,38.25
2023-11-30T01:42:09.374Z,39.50
2023-11-30T01:43:10.839Z,42.00
2023-11-30T01:44:13.329Z,32.75
2023-11-30T01:45:14.898Z,29.00
2023-11-30T01:46:16.527Z,33.50
2023-11-30T01:47:18.961Z,36.25
2023-11-30T01:48:20.521Z,32.00
2023-11-30T01:49:23.014Z,36.00
2023-11-30T01:50:24.507Z,34.25
2023-11-30T01:51:27.175Z,34.00
2023-11-30T01:52:30.006Z,37.00
2023-11-30T01:53:32.426Z,40.25
2023-11-30T01:54:33.917Z,30.50
2023-11-30T01:55:36.344Z,35.00
2023-11-30T01:56:38.065Z,28.75
2023-11-30T01:57:40.474Z,37.25
2023-11-30T01:58:41.900Z,40.25
2023-11-30T01:59:44.705Z,35.50
2023-11-30T02:00:46.243Z,33.50
2023-11-30T02:01:49.052Z,38.75
2023-11-30T02:02:50.569Z,29.25
2023-11-30T02:03:52.233Z,32.00
2023-11-30T02:04:54.827Z,30.75
2023-11-30T02:05:56.318Z,29.00
2023-11-30T02:06:58.872Z,35.00
2023-11-30T02:08:01.984Z,40.50
2023-11-30T02:09:05.231Z,28.50
2023-11-30T02:10:07.268Z,37.25
2023-11-30T02:11:09.771Z,33.75
2023-11-30T02:12:11.378Z,33.25
2023-11-30T02:13:13.847Z,30.25
2023-11-30T02:14:15.293Z,35.00
2023-11-30T02:15:17.761Z,34.50
2023-11-30T02:16:19.273Z,29.00
2023-11-30T02:17:21.964Z,34.00
2023-11-30T02:18:23.567Z,28.75
2023-11-30T02:19:26.092Z,32.75
2023-11-30T02:20:27.529Z,31.25
2023-11-30T02:21:29.970Z,31.50
2023-11-30T02:22:32.927Z,31.25
2023-11-30T02:23:35.341Z,36.00
2023-11-30T02:24:36.799Z,29.50
2023-11-30T02:25:39.185Z,30.75
2023-11-30T02:26:40.612Z,38.75
2023-11-30T02:27:44.323Z,35.00
2023-11-30T02:28:45.751Z,34.50
2023-11-30T02:29:48.168Z,40.50
2023-11-30T02:30:50.841Z,42.50
2023-11-30T02:31:53.672Z,43.25
2023-11-30T02:32:55.266Z,51.25
2023-11-30T02:33:57.764Z,45.75
2023-11-30T02:34:59.203Z,42.75
2023-11-30T02:36:01.625Z,45.25
2023-11-30T02:37:03.236Z,40.25
2023-11-30T02:38:07.132Z,50.50
2023-11-30T02:39:08.632Z,47.00
2023-11-30T02:40:11.719Z,44.25
2023-11-30T02:41:13.227Z,40.50
2023-11-30T02:42:14.947Z,37.00
2023-11-30T02:43:17.499Z,43.25
2023-11-30T02:44:18.925Z,39.50
2023-11-30T02:45:21.375Z,50.25
2023-11-30T02:46:23.006Z,57.50
2023-11-30T02:47:25.551Z,54.25
2023-11-30T02:48:27.290Z,57.75
2023-11-30T02:49:29.737Z,44.75
2023-11-30T02:50:31.182Z,47.25
2023-11-30T02:51:33.654Z,44.25
2023-11-30T02:52:35.102Z,45.00
2023-11-30T02:53:39.109Z,34.25
2023-11-30T02:54:40.550Z,38.50
2023-11-30T02:55:43.001Z,33.00
2023-11-30T02:56:44.450Z,45.00
2023-11-30T02:57:45.903Z,35.50
2023-11-30T02:58:48.639Z,35.50
2023-11-30T02:59:50.086Z,29.75
2023-11-30T03:00:52.535Z,32.75
2023-11-30T03:01:54.129Z,32.25
2023-11-30T03:02:56.629Z,32.75
2023-11-30T03:03:58.490Z,30.75
2023-11-30T03:05:00.932Z,29.75
2023-11-30T03:06:02.459Z,38.75
2023-11-30T03:07:05.003Z,27.25
2023-11-30T03:08:06.451Z,30.75
2023-11-30T03:09:10.448Z,40.25
2023-11-30T03:10:11.904Z,36.75
2023-11-30T03:11:14.400Z,36.25
2023-11-30T03:12:15.894Z,32.25
2023-11-30T03:13:18.346Z,37.25
2023-11-30T03:14:20.354Z,34.25
2023-11-30T03:15:23.314Z,28.75
2023-11-30T03:16:24.910Z,31.00
2023-11-30T03:17:27.424Z,36.00
2023-11-30T03:18:29.130Z,30.75
2023-11-30T03:19:32.048Z,29.75
2023-11-30T03:20:36.799Z,30.50
2023-11-30T03:21:38.263Z,33.00
2023-11-30T03:22:40.689Z,32.25
2023-11-30T03:23:42.171Z,36.00
2023-11-30T03:24:46.014Z,39.00
2023-11-30T03:25:47.472Z,46.25
2023-11-30T03:26:49.897Z,34.00
2023-11-30T03:27:51.337Z,34.50
2023-11-30T03:28:53.749Z,42.00
2023-11-30T03:29:55.363Z,41.25
2023-11-30T03:30:57.809Z,40.25
2023-11-30T03:31:59.285Z,47.25
2023-11-30T03:33:01.788Z,34.00
2023-11-30T03:34:03.330Z,39.75
2023-11-30T03:35:06.408Z,35.00
2023-11-30T03:36:08.398Z,32.00
2023-11-30T03:37:10.964Z,38.75
2023-11-30T03:38:12.480Z,42.00
2023-11-30T03:39:14.036Z,37.25
2023-11-30T03:40:18.145Z,38.50
2023-11-30T03:41:19.593Z,41.50
2023-11-30T03:42:22.048Z,39.75
2023-11-30T03:43:23.521Z,38.50
2023-11-30T03:44:25.944Z,50.50
2023-11-30T03:45:27.710Z,46.50
2023-11-30T03:46:30.401Z,39.25
2023-11-30T03:47:31.988Z,45.25
2023-11-30T03:48:34.476Z,39.00
2023-11-30T03:49:35.917Z,35.50
2023-11-30T03:50:38.594Z,34.00
2023-11-30T03:51:40.127Z,29.75
2023-11-30T03:52:42.648Z,31.50
2023-11-30T03:53:44.118Z,39.25
2023-11-30T03:54:46.560Z,34.50
2023-11-30T03:55:49.531Z,38.25
2023-11-30T03:56:51.955Z,38.75
2023-11-30T03:57:53.402Z,32.00
2023-11-30T03:58:55.825Z,30.75
2023-11-30T03:59:57.378Z,36.75
2023-11-30T04:00:59.923Z,33.25
2023-11-30T04:02:01.414Z,35.00
2023-11-30T04:03:03.985Z,38.50
2023-11-30T04:04:05.565Z,40.75
2023-11-30T04:05:08.558Z,32.50
2023-11-30T04:06:10.301Z,31.00
2023-11-30T04:07:12.732Z,44.75
2023-11-30T04:08:14.173Z,34.00
2023-11-30T04:09:19.600Z,36.75
2023-11-30T04:10:21.329Z,29.25
2023-11-30T04:11:25.536Z,33.75
2023-11-30T04:12:27.052Z,29.25
2023-11-30T04:13:29.925Z,32.75
2023-11-30T04:14:31.360Z,32.75
2023-11-30T04:15:32.905Z,27.25
2023-11-30T04:16:35.909Z,38.50
2023-11-30T04:17:37.636Z,28.75
2023-11-30T04:18:40.119Z,31.75
2023-11-30T04:19:42.877Z,30.75
2023-11-30T04:20:45.304Z,30.50
2023-11-30T04:21:47.153Z,30.25
2023-11-30T04:22:49.600Z,30.75
2023-11-30T04:23:51.037Z,30.75
2023-11-30T04:24:53.476Z,25.25
2023-11-30T04:25:54.926Z,29.00
2023-11-30T04:26:58.995Z,32.75
2023-11-30T04:28:00.481Z,32.25
2023-11-30T04:29:03.015Z,30.25
2023-11-30T04:30:04.877Z,30.50
2023-11-30T04:31:06.711Z,29.75
2023-11-30T04:32:09.414Z,29.75
2023-11-30T04:33:11.254Z,28.00
2023-11-30T04:34:13.751Z,24.75
2023-11-30T04:35:15.191Z,34.75
2023-11-30T04:36:17.719Z,32.75
2023-11-30T04:37:19.392Z,29.50
2023-11-30T04:38:21.862Z,31.25
2023-11-30T04:39:23.334Z,30.75
2023-11-30T04:40:25.769Z,27.00
2023-11-30T04:41:27.206Z,32.50
2023-11-30T04:42:31.247Z,32.00
2023-11-30T04:43:32.719Z,37.75
2023-11-30T04:44:35.169Z,33.50
2023-11-30T04:45:36.716Z,41.25
2023-11-30T04:46:39.170Z,30.25
2023-11-30T04:47:40.763Z,29.00
2023-11-30T04:48:43.305Z,29.50
2023-11-30T04:49:44.964Z,32.75
2023-11-30T04:50:47.404Z,26.50
2023-11-30T04:51:49.015Z,35.00
2023-11-30T04:52:51.704Z,36.50
2023-11-30T04:53:53.153Z,33.00
2023-11-30T04:54:55.594Z,30.50
2023-11-30T04:55:57.053Z,30.50
2023-11-30T04:57:00.343Z,31.00
2023-11-30T04:58:03.334Z,39.75
2023-11-30T04:59:05.791Z,39.50
2023-11-30T05:00:07.946Z,34.75
2023-11-30T05:01:10.418Z,19.25
2023-11-30T05:02:11.970Z,26.50
2023-11-30T05:03:14.716Z,25.00
2023-11-30T05:04:16.383Z,22.50
2023-11-30T05:05:18.945Z,23.25
2023-11-30T05:06:20.398Z,16.25
2023-11-30T05:07:22.850Z,19.00
2023-11-30T05:08:24.324Z,28.00
2023-11-30T05:09:27.040Z,25.75
2023-11-30T05:10:28.480Z,25.00
2023-11-30T05:11:31.118Z,19.50
2023-11-30T05:12:32.607Z,28.00
2023-11-30T05:13:36.596Z,22.75
2023-11-30T05:14:38.026Z,29.00
2023-11-30T05:15:41.000Z,33.00
2023-11-30T05:16:42.596Z,28.50
2023-11-30T05:17:45.080Z,29.00
2023-11-30T05:18:46.725Z,38.50
2023-11-30T05:19:49.206Z,38.25
2023-11-30T05:20:50.666Z,44.50
2023-11-30T05:21:53.159Z,44.50
2023-11-30T05:22:54.609Z,44.25
2023-11-30T05:23:57.247Z,50.75
2023-11-30T05:24:58.699Z,47.00
2023-11-30T05:26:00.403Z,42.50
2023-11-30T05:27:02.912Z,43.50
2023-11-30T05:28:06.954Z,42.00
2023-11-30T05:29:10.835Z,47.50
2023-11-30T05:30:13.013Z,41.00
2023-11-30T05:31:15.734Z,36.00
2023-11-30T05:32:17.812Z,37.25
2023-11-30T05:33:20.297Z,39.00
2023-11-30T05:34:21.928Z,36.00
2023-11-30T05:35:24.739Z,35.75
2023-11-30T05:36:26.241Z,34.00
2023-11-30T05:37:28.690Z,37.75
2023-11-30T05:38:30.124Z,27.75
2023-11-30T05:39:32.966Z,28.00
2023-11-30T05:40:34.514Z,24.25
2023-11-30T05:41:36.941Z,29.00
2023-11-30T05:42:38.372Z,21.75
2023-11-30T05:43:41.541Z,21.25
2023-11-30T05:44:44.444Z,19.00
2023-11-30T05:45:46.952Z,25.50
2023-11-30T05:46:49.254Z,21.75
2023-11-30T05:47:51.733Z,24.50
2023-11-30T05:48:54.950Z,23.50
2023-11-30T05:49:57.646Z,20.50
2023-11-30T05:50:59.122Z,22.00
2023-11-30T05:52:01.562Z,22.00
2023-11-30T05:53:03.015Z,22.50
2023-11-30T05:54:06.215Z,26.50
2023-11-30T05:55:08.859Z,22.25
2023-11-30T05:56:11.532Z,19.50
2023-11-30T05:57:13.008Z,23.00
2023-11-30T05:58:15.483Z,24.25
2023-11-30T05:59:16.923Z,20.00
2023-11-30T06:00:21.738Z,24.75
2023-11-30T06:01:23.238Z,27.25
2023-11-30T06:02:24.712Z,22.75
2023-11-30T06:03:27.302Z,26.25
2023-11-30T06:04:29.048Z,27.25
2023-11-30T06:05:31.692Z,30.00
2023-11-30T06:06:33.184Z,27.00
2023-11-30T06:07:35.649Z,24.75
2023-11-30T06:08:37.113Z,25.50
2023-11-30T06:09:39.545Z,28.25
2023-11-30T06:10:41.165Z,27.50
2023-11-30T06:11:43.666Z,24.00
2023-11-30T06:12:45.131Z,20.75
2023-11-30T06:13:46.592Z,23.75
2023-11-30T06:14:49.008Z,25.00
2023-11-30T06:15:53.609Z,20.75
2023-11-30T06:16:56.063Z,29.75
2023-11-30T06:17:57.577Z,27.00
2023-11-30T06:19:00.067Z,26.25
2023-11-30T06:20:03.929Z,28.25
2023-11-30T06:21:10.776Z,28.25
2023-11-30T06:22:12.314Z,27.00
2023-11-30T06:23:14.807Z,23.00
2023-11-30T06:24:16.264Z,21.75
2023-11-30T06:25:18.698Z,19.00
2023-11-30T06:26:20.260Z,20.25
2023-11-30T06:27:21.713Z,21.00
2023-11-30T06:28:24.164Z,19.75
2023-11-30T06:29:25.680Z,19.75
2023-11-30T06:30:28.244Z,26.25
2023-11-30T06:31:32.425Z,25.75
2023-11-30T06:32:34.003Z,29.25
2023-11-30T06:33:36.499Z,25.00
2023-11-30T06:34:39.752Z,22.75
2023-11-30T06:35:42.489Z,24.50
2023-11-30T06:36:44.153Z,17.00
2023-11-30T06:37:46.605Z,24.25
2023-11-30T06:38:48.062Z,20.00
2023-11-30T06:39:50.519Z,20.75
2023-11-30T06:40:51.968Z,22.25
2023-11-30T06:41:54.475Z,22.25
2023-11-30T06:42:56.029Z,18.00
2023-11-30T06:43:58.443Z,23.25
2023-11-30T06:44:59.997Z,25.50
2023-11-30T06:46:02.466Z,19.00
2023-11-30T06:47:07.742Z,23.00
2023-11-30T06:48:10.352Z,24.75
2023-11-30T06:49:11.864Z,30.25
2023-11-30T06:50:14.518Z,22.00
2023-11-30T06:51:16.000Z,26.75
2023-11-30T06:52:18.801Z,24.50
2023-11-30T06:53:20.427Z,18.25
2023-11-30T06:54:23.471Z,20.25
2023-11-30T06:55:25.007Z,20.00
2023-11-30T06:56:27.433Z,19.25
2023-11-30T06:57:28.927Z,19.75
2023-11-30T06:58:31.358Z,21.25
2023-11-30T06:59:34.229Z,22.25
2023-11-30T07:00:36.270Z,21.25
2023-11-30T07:01:38.721Z,23.75
2023-11-30T07:02:41.694Z,22.25
2023-11-30T07:03:45.965Z,29.75
2023-11-30T07:04:47.690Z,27.75
2023-11-30T07:05:50.219Z,28.50
2023-11-30T07:06:51.644Z,30.00
2023-11-30T07:07:54.246Z,36.25
2023-11-30T07:08:55.705Z,27.50
2023-11-30T07:09:58.149Z,32.00
2023-11-30T07:10:59.603Z,27.75
2023-11-30T07:12:02.038Z,27.50
2023-11-30T07:13:03.723Z,27.50
2023-11-30T07:14:05.236Z,22.75
2023-11-30T07:15:08.524Z,27.00
2023-11-30T07:16:10.713Z,30.25
2023-11-30T07:17:13.156Z,27.75
2023-11-30T07:18:16.214Z,32.00
2023-11-30T07:19:18.691Z,34.00
2023-11-30T07:20:20.174Z,27.75
2023-11-30T07:21:22.662Z,27.00
2023-11-30T07:22:25.797Z,24.75
2023-11-30T07:23:28.439Z,27.00
2023-11-30T07:24:29.906Z,24.25
2023-11-30T07:25:32.356Z,27.00
2023-11-30T07:26:33.810Z,24.25
2023-11-30T07:27:36.288Z,21.00
2023-11-30T07:28:37.935Z,21.75
2023-11-30T07:29:40.523Z,28.25
2023-11-30T07:30:43.168Z,26.75
2023-11-30T07:31:46.415Z,33.25
2023-11-30T07:32:47.930Z,27.00
2023-11-30T07:33:51.955Z,25.75
2023-11-30T07:34:53.773Z,26.00
2023-11-30T07:35:56.228Z,28.25
2023-11-30T07:36:57.684Z,30.50
2023-11-30T07:38:00.116Z,32.50
2023-11-30T07:39:01.730Z,25.50
2023-11-30T07:40:04.734Z,28.00
2023-11-30T07:41:06.620Z,33.75
2023-11-30T07:42:09.099Z,34.75
2023-11-30T07:43:10.600Z,33.50
2023-11-30T07:44:13.898Z,32.50
2023-11-30T07:45:15.352Z,28.00
2023-11-30T07:46:18.112Z,31.25
2023-11-30T07:47:19.970Z,28.00
2023-11-30T07:48:23.005Z,32.25
2023-11-30T07:49:26.109Z,29.25
2023-11-30T07:50:29.389Z,23.00
2023-11-30T07:51:31.046Z,26.50
2023-11-30T07:52:36.509Z,22.25
2023-11-30T07:53:37.971Z,29.25
2023-11-30T07:54:39.542Z,27.00
2023-11-30T07:55:42.017Z,28.50
2023-11-30T07:56:43.458Z,30.75
2023-11-30T07:57:44.876Z,30.75
2023-11-30T07:58:47.293Z,30.25
2023-11-30T07:59:49.169Z,23.75
2023-11-30T08:00:51.898Z,22.00
2023-11-30T08:01:53.361Z,25.50
2023-11-30T08:02:56.021Z,32.25
2023-11-30T08:03:57.645Z,29.00
2023-11-30T08:05:01.757Z,27.50
2023-11-30T08:06:03.385Z,30.00
2023-11-30T08:07:05.951Z,38.25
2023-11-30T08:08:07.801Z,32.75
2023-11-30T08:09:10.602Z,38.75
2023-11-30T08:10:12.246Z,33.75
2023-11-30T08:11:15.618Z,28.00
2023-11-30T08:12:17.105Z,29.00
2023-11-30T08:13:21.068Z,31.00
2023-11-30T08:14:22.512Z,23.25
2023-11-30T08:15:25.078Z,34.75
2023-11-30T08:16:27.152Z,24.75
2023-11-30T08:17:29.847Z,28.50
2023-11-30T08:18:33.093Z,24.25
2023-11-30T08:19:35.625Z,20.00
2023-11-30T08:20:38.523Z,30.25
2023-11-30T08:21:42.119Z,20.75
2023-11-30T08:22:43.578Z,28.00
2023-11-30T08:23:46.022Z,18.00
2023-11-30T08:24:47.586Z,19.00
2023-11-30T08:25:50.796Z,16.50
2023-11-30T08:26:52.318Z,21.75
2023-11-30T08:27:55.156Z,19.25
2023-11-30T08:28:56.834Z,19.00
2023-11-30T08:30:00.059Z,23.25
2023-11-30T08:31:05.931Z,23.00
2023-11-30T08:32:07.458Z,24.25
2023-11-30T08:33:10.438Z,20.00
2023-11-30T08:34:12.232Z,19.25
2023-11-30T08:35:13.728Z,23.50
2023-11-30T08:36:17.714Z,18.50
2023-11-30T08:37:19.534Z,21.50
2023-11-30T08:38:23.992Z,18.00
2023-11-30T08:39:25.665Z,22.25
2023-11-30T08:40:28.170Z,21.50
2023-11-30T08:41:30.028Z,15.75
2023-11-30T08:42:32.545Z,20.50
2023-11-30T08:43:34.137Z,23.75
2023-11-30T08:44:36.845Z,18.75
2023-11-30T08:45:38.322Z,23.75
2023-11-30T08:46:41.039Z,26.50
2023-11-30T08:47:43.317Z,30.00
2023-11-30T08:48:46.348Z,21.00
2023-11-30T08:49:47.850Z,23.25
2023-11-30T08:50:50.356Z,28.00
2023-11-30T08:51:53.807Z,25.00
2023-11-30T08:52:56.450Z,23.00
2023-11-30T08:53:58.027Z,21.50
2023-11-30T08:55:01.515Z,30.50
2023-11-30T08:56:03.035Z,23.75
2023-11-30T08:57:06.259Z,22.25
2023-11-30T08:58:07.737Z,28.00
2023-11-30T08:59:10.196Z,24.75
2023-11-30T09:00:13.075Z,22.75
2023-11-30T09:01:15.573Z,22.75
2023-11-30T09:02:17.575Z,19.00
2023-11-30T09:03:20.299Z,22.25
2023-11-30T09:04:21.819Z,22.25
2023-11-30T09:05:24.808Z,23.75
2023-11-30T09:06:26.661Z,29.25
2023-11-30T09:07:31.787Z,29.75
2023-11-30T09:08:34.746Z,31.50
2023-11-30T09:09:39.564Z,34.00
2023-11-30T09:10:42.709Z,28.50
2023-11-30T09:11:45.792Z,38.00
2023-11-30T09:12:47.571Z,33.75
2023-11-30T09:13:50.010Z,38.25
2023-11-30T09:14:51.653Z,32.00
2023-11-30T09:15:54.149Z,31.25
2023-11-30T09:16:55.662Z,29.75
2023-11-30T09:17:59.524Z,33.25
2023-11-30T09:19:01.995Z,33.25
2023-11-30T09:20:04.151Z,21.50
2023-11-30T09:21:07.158Z,24.75
2023-11-30T09:22:08.957Z,27.75
2023-11-30T09:23:12.908Z,22.75
2023-11-30T09:24:16.292Z,27.00
2023-11-30T09:25:18.764Z,25.50
2023-11-30T09:26:21.088Z,20.50
2023-11-30T09:27:23.539Z,25.75
2023-11-30T09:28:25.452Z,19.00
2023-11-30T09:29:28.052Z,19.75
2023-11-30T09:30:29.593Z,21.00
2023-11-30T09:31:32.180Z,22.00
2023-11-30T09:32:33.707Z,26.00
2023-11-30T09:33:35.329Z,33.25
2023-11-30T09:34:37.806Z,34.00
2023-11-30T09:35:39.284Z,21.50
2023-11-30T09:36:41.799Z,27.50
2023-11-30T09:37:43.788Z,22.25
2023-11-30T09:38:49.481Z,22.75
2023-11-30T09:39:50.969Z,19.75
2023-11-30T09:40:53.542Z,21.25
2023-11-30T09:41:58.670Z,27.25
2023-11-30T09:43:01.170Z,21.50
2023-11-30T09:44:03.304Z,23.75
2023-11-30T09:45:06.476Z,26.25
2023-11-30T09:46:08.241Z,21.50
2023-11-30T09:47:10.753Z,27.50
2023-11-30T09:48:12.281Z,23.50
2023-11-30T09:49:14.765Z,25.25
2023-11-30T09:50:17.016Z,24.00
2023-11-30T09:51:21.363Z,29.75
2023-11-30T09:52:22.855Z,35.50
2023-11-30T09:53:25.285Z,34.00
2023-11-30T09:54:28.089Z,42.50
2023-11-30T09:55:30.833Z,37.25
2023-11-30T09:56:32.631Z,30.00
2023-11-30T09:57:35.313Z,22.75
2023-11-30T09:58:38.579Z,20.00
2023-11-30T09:59:41.012Z,20.75
2023-11-30T10:00:42.901Z,19.00
2023-11-30T10:01:45.452Z,24.50
2023-11-30T10:02:53.397Z,26.75
2023-11-30T10:03:55.936Z,23.00
2023-11-30T10:04:58.046Z,26.50
2023-11-30T10:06:00.711Z,22.50
2023-11-30T10:07:03.408Z,23.00
2023-11-30T10:08:05.923Z,25.50
2023-11-30T10:09:08.885Z,23.50
2023-11-30T10:10:12.717Z,21.50
2023-11-30T10:11:14.274Z,26.50
2023-11-30T10:12:20.937Z,21.25
2023-11-30T10:13:22.528Z,26.75
2023-11-30T10:14:25.007Z,24.00
2023-11-30T10:15:27.087Z,24.00
2023-11-30T10:16:29.767Z,21.25
2023-11-30T10:17:31.337Z,23.00
2023-11-30T10:18:34.538Z,23.75
2023-11-30T10:19:36.255Z,29.50
2023-11-30T10:20:39.175Z,26.75
2023-11-30T10:21:41.040Z,20.50
2023-11-30T10:22:43.532Z,39.75
2023-11-30T10:23:45.325Z,49.75
2023-11-30T10:24:47.797Z,41.00
2023-11-30T10:25:50.609Z,34.50
2023-11-30T10:26:53.391Z,30.75
2023-11-30T10:27:54.864Z,27.50
2023-11-30T10:28:57.332Z,36.25
2023-11-30T10:30:00.095Z,33.00
2023-11-30T10:31:04.407Z,28.00
2023-11-30T10:32:07.017Z,27.75
2023-11-30T10:33:10.381Z,24.00
2023-11-30T10:34:13.003Z,31.00
2023-11-30T10:35:16.460Z,23.50
2023-11-30T10:36:18.005Z,22.75
2023-11-30T10:37:21.702Z,26.00
2023-11-30T10:38:25.294Z,24.00
2023-11-30T10:39:27.853Z,30.00
2023-11-30T10:40:29.384Z,22.75
2023-11-30T10:41:36.495Z,20.75
2023-11-30T10:42:38.638Z,19.25
2023-11-30T10:43:42.702Z,20.00
2023-11-30T10:44:44.241Z,19.00
2023-11-30T10:45:46.757Z,24.50
2023-11-30T10:46:48.268Z,24.75
2023-11-30T10:47:50.839Z,24.00
2023-11-30T10:48:52.533Z,23.50
2023-11-30T10:49:54.975Z,21.00
2023-11-30T10:50:56.406Z,23.00
2023-11-30T10:52:03.117Z,21.25
2023-11-30T10:53:05.496Z,27.00
2023-11-30T10:54:09.560Z,25.50
2023-11-30T10:55:11.608Z,22.50
2023-11-30T10:56:14.663Z,21.50
2023-11-30T10:57:18.793Z,25.25
2023-11-30T10:58:23.280Z,23.50
2023-11-30T10:59:26.156Z,23.50
2023-11-30T11:00:33.813Z,22.00
2023-11-30T11:01:35.551Z,19.25
2023-11-30T11:02:38.992Z,19.00
2023-11-30T11:03:45.614Z,18.75
2023-11-30T11:04:48.261Z,23.25
2023-11-30T11:05:51.235Z,20.75
2023-11-30T11:07:01.745Z,17.75
2023-11-30T11:08:03.457Z,19.00
2023-11-30T11:09:08.629Z,13.75
2023-11-30T11:10:10.579Z,16.00
2023-11-30T11:11:13.189Z,18.00
2023-11-30T11:12:19.913Z,19.50
2023-11-30T11:13:22.989Z,17.50
2023-11-30T11:14:30.096Z,17.75
2023-11-30T11:15:33.270Z,17.75
2023-11-30T11:16:35.840Z,18.00
2023-11-30T11:17:46.203Z,19.00
2023-11-30T11:18:47.658Z,24.00
2023-11-30T11:19:50.257Z,15.75
2023-11-30T11:20:51.709Z,20.00
2023-11-30T11:21:54.156Z,21.50
2023-11-30T11:22:55.756Z,25.50
2023-11-30T11:24:01.817Z,26.00
2023-11-30T11:25:03.608Z,29.00
2023-11-30T11:26:06.426Z,22.75
2023-11-30T11:27:07.895Z,24.25
2023-11-30T11:28:12.440Z,25.75
2023-11-30T11:29:15.406Z,22.50
2023-11-30T11:30:19.077Z,25.00
2023-11-30T11:31:20.637Z,20.75
2023-11-30T11:32:25.881Z,16.75
2023-11-30T11:33:27.588Z,24.00
2023-11-30T11:34:31.622Z,17.75
2023-11-30T11:35:34.204Z,20.00
2023-11-30T11:36:36.061Z,19.25
2023-11-30T11:37:38.525Z,15.00
2023-11-30T11:38:39.967Z,17.00
2023-11-30T11:39:43.084Z,21.75
2023-11-30T11:40:44.602Z,20.25
2023-11-30T11:41:47.555Z,19.00
2023-11-30T11:42:49.024Z,21.25
2023-11-30T11:43:52.838Z,22.25
2023-11-30T11:44:54.341Z,21.75
2023-11-30T11:45:57.201Z,16.00
2023-11-30T11:46:58.993Z,17.75
2023-11-30T11:48:01.535Z,22.75
2023-11-30T11:49:04.066Z,16.75
2023-11-30T11:50:08.040Z,19.25
2023-11-30T11:51:10.924Z,21.50
2023-11-30T11:52:19.951Z,24.25
2023-11-30T11:53:21.473Z,21.50
2023-11-30T11:54:24.331Z,25.50
2023-11-30T11:55:25.868Z,26.50
2023-11-30T11:56:28.463Z,28.50
2023-11-30T11:57:33.434Z,27.00
2023-11-30T11:58:36.215Z,27.00
2023-11-30T11:59:39.091Z,26.25
2023-11-30T12:00:41.594Z,21.75
2023-11-30T12:01:43.392Z,21.75
2023-11-30T12:02:46.136Z,23.50
2023-11-30T12:03:48.361Z,22.25
2023-11-30T12:04:50.876Z,22.00
2023-11-30T12:05:52.441Z,22.50
2023-11-30T12:06:54.246Z,21.00
2023-11-30T12:07:57.121Z,20.25
2023-11-30T12:09:10.101Z,20.00
2023-11-30T12:10:13.923Z,18.75
2023-11-30T12:11:17.551Z,17.25
2023-11-30T12:12:20.918Z,19.00
2023-11-30T12:13:22.961Z,20.75
2023-11-30T12:14:25.403Z,15.00
2023-11-30T12:15:28.439Z,15.00
2023-11-30T12:16:31.027Z,13.75
2023-11-30T12:17:32.717Z,15.50
2023-11-30T12:18:35.421Z,13.75
2023-11-30T12:19:36.900Z,18.00
2023-11-30T12:20:40.237Z,19.50
2023-11-30T12:21:41.715Z,15.50
2023-11-30T12:22:43.299Z,18.25
2023-11-30T12:23:45.744Z,19.00
2023-11-30T12:24:47.243Z,15.00
2023-11-30T12:25:49.700Z,21.50
2023-11-30T12:26:51.147Z,21.75
2023-11-30T12:27:54.359Z,23.25
2023-11-30T12:28:56.203Z,28.50
2023-11-30T12:29:58.704Z,29.50
2023-11-30T12:31:01.703Z,32.25
2023-11-30T12:32:04.241Z,28.75
2023-11-30T12:33:06.146Z,24.75
2023-11-30T12:34:10.171Z,23.75
2023-11-30T12:35:11.761Z,20.00
2023-11-30T12:36:15.253Z,20.50
2023-11-30T12:37:16.725Z,19.25
2023-11-30T12:38:19.196Z,20.75
2023-11-30T12:39:20.708Z,21.50
2023-11-30T12:40:22.271Z,18.00
2023-11-30T12:41:24.806Z,18.50
2023-11-30T12:42:27.660Z,20.25
2023-11-30T12:43:30.133Z,21.00
2023-11-30T12:44:31.559Z,18.50
2023-11-30T12:45:34.028Z,20.75
2023-11-30T12:46:37.083Z,21.00
2023-11-30T12:47:41.403Z,21.00
2023-11-30T12:48:44.231Z,22.25
2023-11-30T12:49:48.761Z,18.50
2023-11-30T12:50:51.591Z,22.25
2023-11-30T12:51:54.090Z,25.00
2023-11-30T12:52:56.478Z,19.00
2023-11-30T12:53:58.971Z,25.00
2023-11-30T12:55:00.595Z,19.75
2023-11-30T12:56:03.359Z,25.75
2023-11-30T12:57:05.031Z,24.25
2023-11-30T12:58:07.479Z,33.25
2023-11-30T12:59:08.981Z,23.50
2023-11-30T13:00:15.963Z,24.50
2023-11-30T13:01:18.400Z,24.00
2023-11-30T13:02:23.496Z,22.25
2023-11-30T13:03:27.243Z,24.00
2023-11-30T13:04:29.856Z,20.25
2023-11-30T13:05:31.331Z,17.00
2023-11-30T13:06:33.843Z,20.75
2023-11-30T13:07:35.693Z,20.75
2023-11-30T13:08:38.245Z,23.50
2023-11-30T13:09:41.377Z,19.00
2023-11-30T13:10:43.842Z,22.25
2023-11-30T13:11:46.122Z,26.50
2023-11-30T13:12:49.071Z,24.00
2023-11-30T13:13:51.851Z,20.75
2023-11-30T13:14:57.219Z,21.75
2023-11-30T13:16:01.919Z,22.25
2023-11-30T13:17:05.810Z,22.50
2023-11-30T13:18:08.742Z,27.00
2023-11-30T13:19:11.530Z,32.00
2023-11-30T13:20:14.665Z,28.25
2023-11-30T13:21:17.911Z,28.00
2023-11-30T13:22:20.283Z,25.75
2023-11-30T13:23:22.748Z,18.00
2023-11-30T13:24:24.244Z,20.25